sensor_id;sensor_type;location;lat;lon;timestamp;P1;durP1;ratioP1;P2;durP2;ratioP2
23519;SDS011;11936;50.820;4.336;2022-10-16T00:01:11;1.55;;;0.88;;
23519;SDS011;11936;50.820;4.336;2022-10-16T00:03:39;0.90;;;0.82;;
23519;SDS011;11936;50.820;4.336;2022-10-16T00:06:06;1.85;;;0.93;;
23519;SDS011;11936;50.820;4.336;2022-10-16T00:08:32;2.17;;;0.98;;
23519;SDS011;11936;50.820;4.336;2022-10-16T00:10:59;5.97;;;1.00;;
23519;SDS011;11936;50.820;4.336;2022-10-16T00:13:28;1.23;;;1.00;;
23519;SDS011;11936;50.820;4.336;2022-10-16T00:15:55;3.38;;;0.82;;
23519;SDS011;11936;50.820;4.336;2022-10-16T00:18:22;3.40;;;0.80;;
23519;SDS011;11936;50.820;4.336;2022-10-16T00:20:48;1.65;;;0.82;;
23519;SDS011;11936;50.820;4.336;2022-10-16T00:23:13;1.15;;;1.02;;
23519;SDS011;11936;50.820;4.336;2022-10-16T00:25:39;0.98;;;0.82;;
23519;SDS011;11936;50.820;4.336;2022-10-16T00:28:04;2.97;;;1.20;;
23519;SDS011;11936;50.820;4.336;2022-10-16T00:30:30;3.53;;;1.33;;
23519;SDS011;11936;50.820;4.336;2022-10-16T00:32:55;4.63;;;1.08;;
23519;SDS011;11936;50.820;4.336;2022-10-16T00:35:21;1.20;;;1.10;;
23519;SDS011;11936;50.820;4.336;2022-10-16T00:37:47;1.55;;;0.98;;
23519;SDS011;11936;50.820;4.336;2022-10-16T00:40:12;1.70;;;1.00;;
23519;SDS011;11936;50.820;4.336;2022-10-16T00:42:38;5.03;;;1.17;;
23519;SDS011;11936;50.820;4.336;2022-10-16T00:45:04;1.85;;;1.45;;
23519;SDS011;11936;50.820;4.336;2022-10-16T00:47:31;1.48;;;1.15;;
23519;SDS011;11936;50.820;4.336;2022-10-16T00:52:48;3.53;;;0.95;;
23519;SDS011;11936;50.820;4.336;2022-10-16T00:55:16;1.45;;;1.00;;
23519;SDS011;11936;50.820;4.336;2022-10-16T00:57:43;1.92;;;1.17;;
23519;SDS011;11936;50.820;4.336;2022-10-16T01:00:09;2.72;;;1.00;;
23519;SDS011;11936;50.820;4.336;2022-10-16T01:02:37;2.42;;;1.17;;
23519;SDS011;11936;50.820;4.336;2022-10-16T01:05:03;1.80;;;1.13;;
23519;SDS011;11936;50.820;4.336;2022-10-16T01:07:39;1.33;;;1.05;;
23519;SDS011;11936;50.820;4.336;2022-10-16T01:13:05;3.33;;;1.33;;
23519;SDS011;11936;50.820;4.336;2022-10-16T01:20:50;1.30;;;1.20;;
23519;SDS011;11936;50.820;4.336;2022-10-16T01:23:27;2.05;;;1.10;;
23519;SDS011;11936;50.820;4.336;2022-10-16T01:28:54;1.13;;;1.05;;
23519;SDS011;11936;50.820;4.336;2022-10-16T01:31:25;1.40;;;1.30;;
23519;SDS011;11936;50.820;4.336;2022-10-16T01:33:56;2.10;;;1.30;;
23519;SDS011;11936;50.820;4.336;2022-10-16T01:36:29;1.45;;;1.30;;
23519;SDS011;11936;50.820;4.336;2022-10-16T01:39:01;4.65;;;1.45;;
23519;SDS011;11936;50.820;4.336;2022-10-16T01:41:30;3.70;;;1.55;;
23519;SDS011;11936;50.820;4.336;2022-10-16T01:44:04;3.60;;;1.25;;
23519;SDS011;11936;50.820;4.336;2022-10-16T01:46:43;2.25;;;1.40;;
23519;SDS011;11936;50.820;4.336;2022-10-16T01:49:12;2.05;;;1.35;;
23519;SDS011;11936;50.820;4.336;2022-10-16T01:51:38;3.58;;;1.20;;
23519;SDS011;11936;50.820;4.336;2022-10-16T01:54:04;2.83;;;1.13;;
23519;SDS011;11936;50.820;4.336;2022-10-16T01:56:33;3.58;;;1.05;;
23519;SDS011;11936;50.820;4.336;2022-10-16T01:59:01;8.38;;;1.70;;
23519;SDS011;11936;50.820;4.336;2022-10-16T02:01:28;2.25;;;1.40;;
23519;SDS011;11936;50.820;4.336;2022-10-16T02:03:57;3.55;;;1.20;;
23519;SDS011;11936;50.820;4.336;2022-10-16T02:06:25;2.53;;;1.27;;
23519;SDS011;11936;50.820;4.336;2022-10-16T02:08:51;2.28;;;1.30;;
23519;SDS011;11936;50.820;4.336;2022-10-16T02:11:17;4.50;;;1.40;;
23519;SDS011;11936;50.820;4.336;2022-10-16T02:13:44;1.48;;;1.30;;
23519;SDS011;11936;50.820;4.336;2022-10-16T02:16:13;2.45;;;1.50;;
23519;SDS011;11936;50.820;4.336;2022-10-16T02:18:39;2.45;;;1.40;;
23519;SDS011;11936;50.820;4.336;2022-10-16T02:21:14;3.63;;;1.35;;
23519;SDS011;11936;50.820;4.336;2022-10-16T02:26:22;1.98;;;1.30;;
23519;SDS011;11936;50.820;4.336;2022-10-16T02:28:55;2.05;;;1.10;;
23519;SDS011;11936;50.820;4.336;2022-10-16T02:31:27;3.35;;;1.30;;
23519;SDS011;11936;50.820;4.336;2022-10-16T02:33:56;1.42;;;1.23;;
23519;SDS011;11936;50.820;4.336;2022-10-16T02:36:24;3.40;;;1.20;;
23519;SDS011;11936;50.820;4.336;2022-10-16T02:38:51;2.20;;;1.75;;
23519;SDS011;11936;50.820;4.336;2022-10-16T02:41:18;4.43;;;1.65;;
23519;SDS011;11936;50.820;4.336;2022-10-16T02:43:46;6.30;;;1.40;;
23519;SDS011;11936;50.820;4.336;2022-10-16T02:46:11;2.92;;;1.40;;
23519;SDS011;11936;50.820;4.336;2022-10-16T02:48:37;4.18;;;1.52;;
23519;SDS011;11936;50.820;4.336;2022-10-16T02:51:02;4.88;;;1.55;;
23519;SDS011;11936;50.820;4.336;2022-10-16T02:53:28;3.90;;;1.77;;
23519;SDS011;11936;50.820;4.336;2022-10-16T02:55:54;4.32;;;1.90;;
23519;SDS011;11936;50.820;4.336;2022-10-16T02:58:19;2.05;;;1.58;;
23519;SDS011;11936;50.820;4.336;2022-10-16T03:00:45;2.47;;;1.60;;
23519;SDS011;11936;50.820;4.336;2022-10-16T03:03:10;2.65;;;1.23;;
23519;SDS011;11936;50.820;4.336;2022-10-16T03:05:36;3.70;;;1.58;;
23519;SDS011;11936;50.820;4.336;2022-10-16T03:08:02;5.50;;;1.73;;
23519;SDS011;11936;50.820;4.336;2022-10-16T03:10:27;3.63;;;1.83;;
23519;SDS011;11936;50.820;4.336;2022-10-16T03:12:53;2.17;;;1.30;;
23519;SDS011;11936;50.820;4.336;2022-10-16T03:15:18;3.33;;;1.50;;
23519;SDS011;11936;50.820;4.336;2022-10-16T03:17:44;6.70;;;2.10;;
23519;SDS011;11936;50.820;4.336;2022-10-16T03:20:10;5.28;;;1.65;;
23519;SDS011;11936;50.820;4.336;2022-10-16T03:22:35;3.97;;;1.75;;
23519;SDS011;11936;50.820;4.336;2022-10-16T03:25:01;3.67;;;2.05;;
23519;SDS011;11936;50.820;4.336;2022-10-16T03:27:27;3.95;;;1.63;;
23519;SDS011;11936;50.820;4.336;2022-10-16T03:29:52;4.80;;;1.55;;
23519;SDS011;11936;50.820;4.336;2022-10-16T03:32:18;5.07;;;1.92;;
23519;SDS011;11936;50.820;4.336;2022-10-16T03:34:45;3.58;;;1.60;;
23519;SDS011;11936;50.820;4.336;2022-10-16T03:37:10;3.75;;;1.65;;
23519;SDS011;11936;50.820;4.336;2022-10-16T03:39:36;2.85;;;1.65;;
23519;SDS011;11936;50.820;4.336;2022-10-16T03:42:01;1.38;;;1.27;;
23519;SDS011;11936;50.820;4.336;2022-10-16T03:44:27;2.97;;;1.60;;
23519;SDS011;11936;50.820;4.336;2022-10-16T03:46:59;4.60;;;1.60;;
23519;SDS011;11936;50.820;4.336;2022-10-16T03:49:25;7.65;;;1.60;;
23519;SDS011;11936;50.820;4.336;2022-10-16T03:51:50;2.42;;;1.40;;
23519;SDS011;11936;50.820;4.336;2022-10-16T03:54:16;2.45;;;1.52;;
23519;SDS011;11936;50.820;4.336;2022-10-16T03:56:41;4.95;;;1.67;;
23519;SDS011;11936;50.820;4.336;2022-10-16T03:59:07;4.05;;;1.67;;
23519;SDS011;11936;50.820;4.336;2022-10-16T04:01:32;2.38;;;1.40;;
23519;SDS011;11936;50.820;4.336;2022-10-16T04:03:58;5.97;;;1.50;;
23519;SDS011;11936;50.820;4.336;2022-10-16T04:06:23;2.75;;;1.45;;
23519;SDS011;11936;50.820;4.336;2022-10-16T04:08:49;1.58;;;1.48;;
23519;SDS011;11936;50.820;4.336;2022-10-16T04:11:14;9.02;;;1.80;;
23519;SDS011;11936;50.820;4.336;2022-10-16T04:13:40;4.05;;;1.30;;
23519;SDS011;11936;50.820;4.336;2022-10-16T04:16:06;4.28;;;1.50;;
23519;SDS011;11936;50.820;4.336;2022-10-16T04:18:32;5.50;;;1.40;;
23519;SDS011;11936;50.820;4.336;2022-10-16T04:21:01;5.68;;;1.55;;
23519;SDS011;11936;50.820;4.336;2022-10-16T04:23:28;2.42;;;1.40;;
23519;SDS011;11936;50.820;4.336;2022-10-16T04:25:53;4.65;;;1.60;;
23519;SDS011;11936;50.820;4.336;2022-10-16T04:28:19;1.75;;;1.40;;
23519;SDS011;11936;50.820;4.336;2022-10-16T04:30:45;4.15;;;1.67;;
23519;SDS011;11936;50.820;4.336;2022-10-16T04:33:10;3.55;;;1.98;;
23519;SDS011;11936;50.820;4.336;2022-10-16T04:35:37;1.40;;;1.30;;
23519;SDS011;11936;50.820;4.336;2022-10-16T04:38:03;2.97;;;1.27;;
23519;SDS011;11936;50.820;4.336;2022-10-16T04:40:29;2.53;;;1.30;;
23519;SDS011;11936;50.820;4.336;2022-10-16T04:45:23;5.63;;;1.80;;
23519;SDS011;11936;50.820;4.336;2022-10-16T04:47:49;4.07;;;1.70;;
23519;SDS011;11936;50.820;4.336;2022-10-16T04:50:15;2.58;;;1.33;;
23519;SDS011;11936;50.820;4.336;2022-10-16T04:52:40;4.53;;;1.50;;
23519;SDS011;11936;50.820;4.336;2022-10-16T04:55:06;3.15;;;1.73;;
23519;SDS011;11936;50.820;4.336;2022-10-16T04:57:32;6.35;;;1.67;;
23519;SDS011;11936;50.820;4.336;2022-10-16T04:59:58;5.40;;;1.77;;
23519;SDS011;11936;50.820;4.336;2022-10-16T05:02:27;5.43;;;1.52;;
23519;SDS011;11936;50.820;4.336;2022-10-16T05:04:53;5.45;;;1.70;;
23519;SDS011;11936;50.820;4.336;2022-10-16T05:07:19;5.18;;;1.83;;
23519;SDS011;11936;50.820;4.336;2022-10-16T05:09:44;7.03;;;1.67;;
23519;SDS011;11936;50.820;4.336;2022-10-16T05:12:10;7.30;;;2.28;;
23519;SDS011;11936;50.820;4.336;2022-10-16T05:14:35;3.45;;;1.80;;
23519;SDS011;11936;50.820;4.336;2022-10-16T05:17:01;3.60;;;1.73;;
23519;SDS011;11936;50.820;4.336;2022-10-16T05:19:26;2.83;;;1.65;;
23519;SDS011;11936;50.820;4.336;2022-10-16T05:21:52;2.42;;;1.95;;
23519;SDS011;11936;50.820;4.336;2022-10-16T05:24:18;3.97;;;2.00;;
23519;SDS011;11936;50.820;4.336;2022-10-16T05:26:43;3.67;;;2.10;;
23519;SDS011;11936;50.820;4.336;2022-10-16T05:29:09;5.10;;;2.40;;
23519;SDS011;11936;50.820;4.336;2022-10-16T05:31:34;4.10;;;1.90;;
23519;SDS011;11936;50.820;4.336;2022-10-16T05:34:00;7.05;;;2.42;;
23519;SDS011;11936;50.820;4.336;2022-10-16T05:36:26;3.67;;;1.73;;
23519;SDS011;11936;50.820;4.336;2022-10-16T05:38:52;2.75;;;2.05;;
23519;SDS011;11936;50.820;4.336;2022-10-16T05:41:18;8.15;;;2.10;;
23519;SDS011;11936;50.820;4.336;2022-10-16T05:43:48;4.65;;;1.70;;
23519;SDS011;11936;50.820;4.336;2022-10-16T05:46:14;2.65;;;2.10;;
23519;SDS011;11936;50.820;4.336;2022-10-16T05:48:40;7.90;;;2.22;;
23519;SDS011;11936;50.820;4.336;2022-10-16T05:51:06;9.32;;;2.55;;
23519;SDS011;11936;50.820;4.336;2022-10-16T05:53:35;6.35;;;2.63;;
23519;SDS011;11936;50.820;4.336;2022-10-16T05:56:01;6.25;;;2.33;;
23519;SDS011;11936;50.820;4.336;2022-10-16T05:58:28;3.88;;;1.88;;
23519;SDS011;11936;50.820;4.336;2022-10-16T06:00:57;5.55;;;2.55;;
23519;SDS011;11936;50.820;4.336;2022-10-16T06:03:27;2.17;;;1.98;;
23519;SDS011;11936;50.820;4.336;2022-10-16T06:05:53;5.90;;;1.77;;
23519;SDS011;11936;50.820;4.336;2022-10-16T06:08:19;5.53;;;1.95;;
23519;SDS011;11936;50.820;4.336;2022-10-16T06:10:46;5.35;;;2.13;;
23519;SDS011;11936;50.820;4.336;2022-10-16T06:13:13;3.70;;;1.83;;
23519;SDS011;11936;50.820;4.336;2022-10-16T06:15:39;5.90;;;2.10;;
23519;SDS011;11936;50.820;4.336;2022-10-16T06:18:09;4.50;;;2.05;;
23519;SDS011;11936;50.820;4.336;2022-10-16T06:20:35;4.25;;;1.73;;
23519;SDS011;11936;50.820;4.336;2022-10-16T06:23:01;4.57;;;2.03;;
23519;SDS011;11936;50.820;4.336;2022-10-16T06:25:28;4.05;;;2.03;;
23519;SDS011;11936;50.820;4.336;2022-10-16T06:27:55;3.20;;;2.10;;
23519;SDS011;11936;50.820;4.336;2022-10-16T06:30:20;5.47;;;2.08;;
23519;SDS011;11936;50.820;4.336;2022-10-16T06:32:46;5.22;;;2.20;;
23519;SDS011;11936;50.820;4.336;2022-10-16T06:35:12;4.78;;;2.45;;
23519;SDS011;11936;50.820;4.336;2022-10-16T06:37:37;4.80;;;2.15;;
23519;SDS011;11936;50.820;4.336;2022-10-16T06:40:03;5.68;;;1.95;;
23519;SDS011;11936;50.820;4.336;2022-10-16T06:42:29;8.10;;;2.08;;
23519;SDS011;11936;50.820;4.336;2022-10-16T06:44:55;3.17;;;1.80;;
23519;SDS011;11936;50.820;4.336;2022-10-16T06:47:20;7.53;;;2.17;;
23519;SDS011;11936;50.820;4.336;2022-10-16T06:49:46;3.83;;;1.95;;
23519;SDS011;11936;50.820;4.336;2022-10-16T06:52:12;4.80;;;1.95;;
23519;SDS011;11936;50.820;4.336;2022-10-16T06:54:37;4.22;;;1.80;;
23519;SDS011;11936;50.820;4.336;2022-10-16T06:57:03;4.07;;;2.05;;
23519;SDS011;11936;50.820;4.336;2022-10-16T06:59:28;4.63;;;1.70;;
23519;SDS011;11936;50.820;4.336;2022-10-16T07:01:54;6.25;;;2.30;;
23519;SDS011;11936;50.820;4.336;2022-10-16T07:04:19;2.83;;;1.90;;
23519;SDS011;11936;50.820;4.336;2022-10-16T07:06:45;2.67;;;1.55;;
23519;SDS011;11936;50.820;4.336;2022-10-16T07:09:11;3.83;;;1.65;;
23519;SDS011;11936;50.820;4.336;2022-10-16T07:11:37;7.72;;;2.22;;
23519;SDS011;11936;50.820;4.336;2022-10-16T07:14:04;2.50;;;1.83;;
23519;SDS011;11936;50.820;4.336;2022-10-16T07:16:37;2.83;;;1.60;;
23519;SDS011;11936;50.820;4.336;2022-10-16T07:19:03;3.95;;;2.17;;
23519;SDS011;11936;50.820;4.336;2022-10-16T07:21:30;3.88;;;2.10;;
23519;SDS011;11936;50.820;4.336;2022-10-16T07:24:00;2.47;;;2.00;;
23519;SDS011;11936;50.820;4.336;2022-10-16T07:26:27;2.63;;;2.00;;
23519;SDS011;11936;50.820;4.336;2022-10-16T07:28:53;5.18;;;1.77;;
23519;SDS011;11936;50.820;4.336;2022-10-16T07:31:19;6.13;;;2.05;;
23519;SDS011;11936;50.820;4.336;2022-10-16T07:33:46;3.92;;;2.22;;
23519;SDS011;11936;50.820;4.336;2022-10-16T07:36:13;2.35;;;1.60;;
23519;SDS011;11936;50.820;4.336;2022-10-16T07:38:40;4.07;;;1.77;;
23519;SDS011;11936;50.820;4.336;2022-10-16T07:41:07;5.97;;;2.00;;
23519;SDS011;11936;50.820;4.336;2022-10-16T07:43:36;3.78;;;2.25;;
23519;SDS011;11936;50.820;4.336;2022-10-16T07:46:01;5.35;;;1.95;;
23519;SDS011;11936;50.820;4.336;2022-10-16T07:48:28;7.85;;;1.90;;
23519;SDS011;11936;50.820;4.336;2022-10-16T07:50:59;7.43;;;2.30;;
23519;SDS011;11936;50.820;4.336;2022-10-16T07:53:29;3.10;;;1.98;;
23519;SDS011;11936;50.820;4.336;2022-10-16T07:55:59;5.45;;;2.40;;
23519;SDS011;11936;50.820;4.336;2022-10-16T07:58:29;5.25;;;2.28;;
23519;SDS011;11936;50.820;4.336;2022-10-16T08:00:55;7.18;;;2.50;;
23519;SDS011;11936;50.820;4.336;2022-10-16T08:03:21;4.70;;;2.00;;
23519;SDS011;11936;50.820;4.336;2022-10-16T08:05:47;3.92;;;2.22;;
23519;SDS011;11936;50.820;4.336;2022-10-16T08:08:13;3.97;;;1.95;;
23519;SDS011;11936;50.820;4.336;2022-10-16T08:10:39;3.85;;;2.15;;
23519;SDS011;11936;50.820;4.336;2022-10-16T08:13:05;6.15;;;1.77;;
23519;SDS011;11936;50.820;4.336;2022-10-16T08:15:31;3.90;;;1.92;;
23519;SDS011;11936;50.820;4.336;2022-10-16T08:17:57;4.80;;;1.90;;
23519;SDS011;11936;50.820;4.336;2022-10-16T08:20:25;6.60;;;2.17;;
23519;SDS011;11936;50.820;4.336;2022-10-16T08:22:52;7.60;;;2.42;;
23519;SDS011;11936;50.820;4.336;2022-10-16T08:25:19;7.63;;;1.85;;
23519;SDS011;11936;50.820;4.336;2022-10-16T08:27:45;7.90;;;1.98;;
23519;SDS011;11936;50.820;4.336;2022-10-16T08:30:11;7.80;;;2.03;;
23519;SDS011;11936;50.820;4.336;2022-10-16T08:32:37;3.70;;;1.70;;
23519;SDS011;11936;50.820;4.336;2022-10-16T08:35:03;5.32;;;2.03;;
23519;SDS011;11936;50.820;4.336;2022-10-16T08:37:32;11.18;;;2.25;;
23519;SDS011;11936;50.820;4.336;2022-10-16T08:39:58;5.78;;;2.00;;
23519;SDS011;11936;50.820;4.336;2022-10-16T08:50:29;6.97;;;2.15;;
23519;SDS011;11936;50.820;4.336;2022-10-16T08:52:56;4.33;;;1.70;;
23519;SDS011;11936;50.820;4.336;2022-10-16T08:58:17;5.25;;;1.63;;
23519;SDS011;11936;50.820;4.336;2022-10-16T09:00:45;5.37;;;1.40;;
23519;SDS011;11936;50.820;4.336;2022-10-16T09:03:17;4.93;;;1.75;;
23519;SDS011;11936;50.820;4.336;2022-10-16T09:05:52;4.97;;;1.60;;
23519;SDS011;11936;50.820;4.336;2022-10-16T09:08:51;4.88;;;1.50;;
23519;SDS011;11936;50.820;4.336;2022-10-16T09:16:34;9.75;;;2.00;;
23519;SDS011;11936;50.820;4.336;2022-10-16T09:21:35;2.67;;;1.45;;
23519;SDS011;11936;50.820;4.336;2022-10-16T09:24:24;2.78;;;1.55;;
23519;SDS011;11936;50.820;4.336;2022-10-16T09:26:51;3.45;;;1.50;;
23519;SDS011;11936;50.820;4.336;2022-10-16T09:29:17;6.82;;;1.50;;
23519;SDS011;11936;50.820;4.336;2022-10-16T09:31:50;8.85;;;1.98;;
23519;SDS011;11936;50.820;4.336;2022-10-16T09:37:05;7.75;;;1.63;;
23519;SDS011;11936;50.820;4.336;2022-10-16T09:42:16;7.45;;;1.83;;
23519;SDS011;11936;50.820;4.336;2022-10-16T09:45:02;6.35;;;2.13;;
23519;SDS011;11936;50.820;4.336;2022-10-16T09:47:30;5.85;;;1.73;;
23519;SDS011;11936;50.820;4.336;2022-10-16T09:49:57;2.83;;;1.52;;
23519;SDS011;11936;50.820;4.336;2022-10-16T09:52:30;12.55;;;2.55;;
23519;SDS011;11936;50.820;4.336;2022-10-16T09:54:58;6.07;;;1.42;;
23519;SDS011;11936;50.820;4.336;2022-10-16T09:57:25;7.18;;;1.63;;
23519;SDS011;11936;50.820;4.336;2022-10-16T09:59:52;6.50;;;2.47;;
23519;SDS011;11936;50.820;4.336;2022-10-16T10:02:23;2.28;;;1.45;;
23519;SDS011;11936;50.820;4.336;2022-10-16T10:04:55;5.65;;;1.60;;
23519;SDS011;11936;50.820;4.336;2022-10-16T10:07:29;2.97;;;1.20;;
23519;SDS011;11936;50.820;4.336;2022-10-16T10:10:00;6.30;;;2.08;;
23519;SDS011;11936;50.820;4.336;2022-10-16T10:12:28;12.32;;;1.40;;
23519;SDS011;11936;50.820;4.336;2022-10-16T10:14:58;7.72;;;1.50;;
23519;SDS011;11936;50.820;4.336;2022-10-16T10:17:29;5.68;;;1.60;;
23519;SDS011;11936;50.820;4.336;2022-10-16T10:22:24;10.23;;;1.50;;
23519;SDS011;11936;50.820;4.336;2022-10-16T10:27:48;4.65;;;1.50;;
23519;SDS011;11936;50.820;4.336;2022-10-16T10:40:51;2.40;;;1.30;;
23519;SDS011;11936;50.820;4.336;2022-10-16T10:46:21;7.47;;;2.03;;
23519;SDS011;11936;50.820;4.336;2022-10-16T10:49:12;4.18;;;1.60;;
23519;SDS011;11936;50.820;4.336;2022-10-16T10:51:50;4.45;;;2.08;;
23519;SDS011;11936;50.820;4.336;2022-10-16T10:54:42;5.85;;;1.67;;
23519;SDS011;11936;50.820;4.336;2022-10-16T10:57:29;8.65;;;1.60;;
23519;SDS011;11936;50.820;4.336;2022-10-16T11:06:00;5.00;;;1.38;;
23519;SDS011;11936;50.820;4.336;2022-10-16T11:08:53;7.95;;;1.58;;
23519;SDS011;11936;50.820;4.336;2022-10-16T11:11:43;4.85;;;1.60;;
23519;SDS011;11936;50.820;4.336;2022-10-16T11:14:16;4.50;;;1.65;;
23519;SDS011;11936;50.820;4.336;2022-10-16T11:17:19;5.85;;;1.40;;
23519;SDS011;11936;50.820;4.336;2022-10-16T11:22:20;4.70;;;1.75;;
23519;SDS011;11936;50.820;4.336;2022-10-16T11:27:40;6.55;;;1.30;;
23519;SDS011;11936;50.820;4.336;2022-10-16T11:35:20;5.60;;;1.83;;
23519;SDS011;11936;50.820;4.336;2022-10-16T11:38:02;7.60;;;1.45;;
23519;SDS011;11936;50.820;4.336;2022-10-16T11:40:33;5.35;;;1.58;;
23519;SDS011;11936;50.820;4.336;2022-10-16T11:43:52;3.92;;;0.82;;
23519;SDS011;11936;50.820;4.336;2022-10-16T11:46:10;1.88;;;0.90;;
23519;SDS011;11936;50.820;4.336;2022-10-16T11:48:54;4.15;;;1.23;;
23519;SDS011;11936;50.820;4.336;2022-10-16T11:51:36;8.00;;;1.42;;
23519;SDS011;11936;50.820;4.336;2022-10-16T11:56:37;3.08;;;1.10;;
23519;SDS011;11936;50.820;4.336;2022-10-16T11:59:12;6.28;;;1.55;;
23519;SDS011;11936;50.820;4.336;2022-10-16T12:02:20;3.35;;;1.23;;
23519;SDS011;11936;50.820;4.336;2022-10-16T12:04:46;2.42;;;1.13;;
23519;SDS011;11936;50.820;4.336;2022-10-16T12:09:52;1.70;;;1.00;;
23519;SDS011;11936;50.820;4.336;2022-10-16T12:12:25;0.95;;;0.90;;
23519;SDS011;11936;50.820;4.336;2022-10-16T12:14:59;5.13;;;1.83;;
23519;SDS011;11936;50.820;4.336;2022-10-16T12:17:35;4.20;;;1.27;;
23519;SDS011;11936;50.820;4.336;2022-10-16T12:22:40;2.83;;;1.13;;
23519;SDS011;11936;50.820;4.336;2022-10-16T12:25:25;3.63;;;1.30;;
23519;SDS011;11936;50.820;4.336;2022-10-16T12:28:06;3.22;;;1.15;;
23519;SDS011;11936;50.820;4.336;2022-10-16T12:30:43;1.83;;;1.08;;
23519;SDS011;11936;50.820;4.336;2022-10-16T12:35:54;6.38;;;1.73;;
23519;SDS011;11936;50.820;4.336;2022-10-16T12:38:26;2.83;;;1.08;;
23519;SDS011;11936;50.820;4.336;2022-10-16T12:40:57;4.63;;;1.23;;
23519;SDS011;11936;50.820;4.336;2022-10-16T12:46:00;3.03;;;1.20;;
23519;SDS011;11936;50.820;4.336;2022-10-16T12:48:26;4.63;;;1.40;;
23519;SDS011;11936;50.820;4.336;2022-10-16T12:50:52;4.65;;;1.27;;
23519;SDS011;11936;50.820;4.336;2022-10-16T12:53:21;5.35;;;1.10;;
23519;SDS011;11936;50.820;4.336;2022-10-16T12:58:32;3.78;;;1.38;;
23519;SDS011;11936;50.820;4.336;2022-10-16T13:06:33;3.88;;;1.30;;
23519;SDS011;11936;50.820;4.336;2022-10-16T13:20:54;4.60;;;1.08;;
23519;SDS011;11936;50.820;4.336;2022-10-16T13:23:15;2.92;;;1.17;;
23519;SDS011;11936;50.820;4.336;2022-10-16T13:28:37;5.05;;;1.45;;
23519;SDS011;11936;50.820;4.336;2022-10-16T13:31:04;5.28;;;1.55;;
23519;SDS011;11936;50.820;4.336;2022-10-16T13:33:32;4.18;;;1.73;;
23519;SDS011;11936;50.820;4.336;2022-10-16T13:35:59;4.65;;;1.60;;
23519;SDS011;11936;50.820;4.336;2022-10-16T13:38:26;7.85;;;1.73;;
23519;SDS011;11936;50.820;4.336;2022-10-16T13:41:11;3.72;;;1.58;;
23519;SDS011;11936;50.820;4.336;2022-10-16T13:43:48;4.72;;;1.83;;
23519;SDS011;11936;50.820;4.336;2022-10-16T13:46:17;3.28;;;1.60;;
23519;SDS011;11936;50.820;4.336;2022-10-16T13:48:45;3.85;;;1.80;;
23519;SDS011;11936;50.820;4.336;2022-10-16T13:51:29;3.63;;;0.93;;
23519;SDS011;11936;50.820;4.336;2022-10-16T13:53:56;3.20;;;1.40;;
23519;SDS011;11936;50.820;4.336;2022-10-16T13:56:22;5.75;;;1.30;;
23519;SDS011;11936;50.820;4.336;2022-10-16T13:58:58;4.32;;;1.20;;
23519;SDS011;11936;50.820;4.336;2022-10-16T14:01:32;4.68;;;1.35;;
23519;SDS011;11936;50.820;4.336;2022-10-16T14:04:04;4.95;;;1.60;;
23519;SDS011;11936;50.820;4.336;2022-10-16T14:06:32;4.60;;;1.30;;
23519;SDS011;11936;50.820;4.336;2022-10-16T14:09:07;4.75;;;1.15;;
23519;SDS011;11936;50.820;4.336;2022-10-16T14:12:11;1.90;;;1.30;;
23519;SDS011;11936;50.820;4.336;2022-10-16T14:14:34;4.57;;;1.23;;
23519;SDS011;11936;50.820;4.336;2022-10-16T14:17:05;2.78;;;1.10;;
23519;SDS011;11936;50.820;4.336;2022-10-16T14:19:38;2.83;;;1.30;;
23519;SDS011;11936;50.820;4.336;2022-10-16T14:22:03;2.33;;;1.10;;
23519;SDS011;11936;50.820;4.336;2022-10-16T14:24:54;3.10;;;1.27;;
23519;SDS011;11936;50.820;4.336;2022-10-16T14:27:23;2.25;;;1.10;;
23519;SDS011;11936;50.820;4.336;2022-10-16T14:32:41;1.50;;;1.13;;
23519;SDS011;11936;50.820;4.336;2022-10-16T14:37:59;7.28;;;1.60;;
23519;SDS011;11936;50.820;4.336;2022-10-16T14:40:28;3.80;;;1.27;;
23519;SDS011;11936;50.820;4.336;2022-10-16T14:42:58;3.63;;;1.25;;
23519;SDS011;11936;50.820;4.336;2022-10-16T14:45:26;1.95;;;0.95;;
23519;SDS011;11936;50.820;4.336;2022-10-16T14:47:58;8.70;;;1.73;;
23519;SDS011;11936;50.820;4.336;2022-10-16T14:50:26;2.65;;;1.58;;
23519;SDS011;11936;50.820;4.336;2022-10-16T14:52:52;4.75;;;1.65;;
23519;SDS011;11936;50.820;4.336;2022-10-16T14:55:18;8.05;;;2.80;;
23519;SDS011;11936;50.820;4.336;2022-10-16T14:57:44;5.03;;;2.38;;
23519;SDS011;11936;50.820;4.336;2022-10-16T15:00:19;6.75;;;1.90;;
23519;SDS011;11936;50.820;4.336;2022-10-16T15:02:47;6.15;;;1.95;;
23519;SDS011;11936;50.820;4.336;2022-10-16T15:07:41;5.77;;;2.03;;
23519;SDS011;11936;50.820;4.336;2022-10-16T15:10:07;9.75;;;3.53;;
23519;SDS011;11936;50.820;4.336;2022-10-16T15:12:33;4.13;;;2.38;;
23519;SDS011;11936;50.820;4.336;2022-10-16T15:14:59;5.13;;;3.10;;
23519;SDS011;11936;50.820;4.336;2022-10-16T15:17:24;10.35;;;2.08;;
23519;SDS011;11936;50.820;4.336;2022-10-16T15:19:50;4.57;;;1.67;;
23519;SDS011;11936;50.820;4.336;2022-10-16T15:22:16;4.85;;;1.75;;
23519;SDS011;11936;50.820;4.336;2022-10-16T15:24:42;5.35;;;2.15;;
23519;SDS011;11936;50.820;4.336;2022-10-16T15:27:07;7.72;;;2.20;;
23519;SDS011;11936;50.820;4.336;2022-10-16T15:29:33;6.13;;;2.53;;
23519;SDS011;11936;50.820;4.336;2022-10-16T15:31:59;4.68;;;2.05;;
23519;SDS011;11936;50.820;4.336;2022-10-16T15:34:24;2.42;;;1.73;;
23519;SDS011;11936;50.820;4.336;2022-10-16T15:36:50;9.07;;;2.35;;
23519;SDS011;11936;50.820;4.336;2022-10-16T15:39:16;6.05;;;2.17;;
23519;SDS011;11936;50.820;4.336;2022-10-16T15:41:45;4.05;;;1.90;;
23519;SDS011;11936;50.820;4.336;2022-10-16T15:44:18;4.22;;;2.17;;
23519;SDS011;11936;50.820;4.336;2022-10-16T15:46:45;5.20;;;1.90;;
23519;SDS011;11936;50.820;4.336;2022-10-16T15:49:11;5.43;;;2.10;;
23519;SDS011;11936;50.820;4.336;2022-10-16T15:51:40;6.32;;;2.20;;
23519;SDS011;11936;50.820;4.336;2022-10-16T15:54:07;4.88;;;1.70;;
23519;SDS011;11936;50.820;4.336;2022-10-16T15:56:33;6.78;;;2.00;;
23519;SDS011;11936;50.820;4.336;2022-10-16T15:59:02;6.67;;;1.87;;
23519;SDS011;11936;50.820;4.336;2022-10-16T16:01:31;2.00;;;1.40;;
23519;SDS011;11936;50.820;4.336;2022-10-16T16:03:58;5.25;;;1.73;;
23519;SDS011;11936;50.820;4.336;2022-10-16T16:06:23;6.70;;;2.03;;
23519;SDS011;11936;50.820;4.336;2022-10-16T16:08:49;5.60;;;1.77;;
23519;SDS011;11936;50.820;4.336;2022-10-16T16:11:16;7.68;;;1.52;;
23519;SDS011;11936;50.820;4.336;2022-10-16T16:13:42;6.03;;;1.83;;
23519;SDS011;11936;50.820;4.336;2022-10-16T16:16:12;2.08;;;1.48;;
23519;SDS011;11936;50.820;4.336;2022-10-16T16:18:40;4.82;;;1.73;;
23519;SDS011;11936;50.820;4.336;2022-10-16T16:21:06;5.03;;;1.75;;
23519;SDS011;11936;50.820;4.336;2022-10-16T16:23:32;4.82;;;2.08;;
23519;SDS011;11936;50.820;4.336;2022-10-16T16:26:02;5.18;;;1.75;;
23519;SDS011;11936;50.820;4.336;2022-10-16T16:28:29;5.32;;;1.90;;
23519;SDS011;11936;50.820;4.336;2022-10-16T16:30:55;8.75;;;2.42;;
23519;SDS011;11936;50.820;4.336;2022-10-16T16:33:20;4.70;;;2.20;;
23519;SDS011;11936;50.820;4.336;2022-10-16T16:35:46;5.68;;;2.40;;
23519;SDS011;11936;50.820;4.336;2022-10-16T16:38:12;6.60;;;2.30;;
23519;SDS011;11936;50.820;4.336;2022-10-16T16:40:37;7.78;;;3.03;;
23519;SDS011;11936;50.820;4.336;2022-10-16T16:43:03;5.07;;;2.50;;
23519;SDS011;11936;50.820;4.336;2022-10-16T16:45:29;4.15;;;2.50;;
23519;SDS011;11936;50.820;4.336;2022-10-16T16:47:54;5.43;;;2.97;;
23519;SDS011;11936;50.820;4.336;2022-10-16T16:50:20;5.82;;;2.30;;
23519;SDS011;11936;50.820;4.336;2022-10-16T16:52:45;2.42;;;1.70;;
23519;SDS011;11936;50.820;4.336;2022-10-16T16:55:11;6.75;;;2.88;;
23519;SDS011;11936;50.820;4.336;2022-10-16T16:57:36;8.65;;;3.10;;
23519;SDS011;11936;50.820;4.336;2022-10-16T17:00:03;7.82;;;3.30;;